sensor_id;sensor_type;location;lat;lon;timestamp;temperature;humidity
73777;DHT22;62088;50.240;2.696;2024-03-07T00:00:11;4.30;77.50
73777;DHT22;62088;50.240;2.696;2024-03-07T00:02:47;4.40;77.50
73777;DHT22;62088;50.240;2.696;2024-03-07T00:05:20;4.40;77.50
73777;DHT22;62088;50.240;2.696;2024-03-07T00:07:48;4.30;77.40
73777;DHT22;62088;50.240;2.696;2024-03-07T00:10:16;4.30;77.40
73777;DHT22;62088;50.240;2.696;2024-03-07T00:12:44;4.30;77.30
73777;DHT22;62088;50.240;2.696;2024-03-07T00:15:12;4.30;77.30
73777;DHT22;62088;50.240;2.696;2024-03-07T00:17:40;4.20;77.30
73777;DHT22;62088;50.240;2.696;2024-03-07T00:20:08;4.20;77.40
73777;DHT22;62088;50.240;2.696;2024-03-07T00:22:36;4.20;77.40
73777;DHT22;62088;50.240;2.696;2024-03-07T00:25:04;4.20;77.50
73777;DHT22;62088;50.240;2.696;2024-03-07T00:27:33;4.20;77.50
73777;DHT22;62088;50.240;2.696;2024-03-07T00:30:00;4.20;77.40
73777;DHT22;62088;50.240;2.696;2024-03-07T00:32:27;4.20;77.40
73777;DHT22;62088;50.240;2.696;2024-03-07T00:34:57;4.10;77.40
73777;DHT22;62088;50.240;2.696;2024-03-07T00:37:24;4.10;77.40
73777;DHT22;62088;50.240;2.696;2024-03-07T00:39:54;4.10;77.40
73777;DHT22;62088;50.240;2.696;2024-03-07T00:42:21;4.10;77.40
73777;DHT22;62088;50.240;2.696;2024-03-07T00:44:49;4.10;77.40
73777;DHT22;62088;50.240;2.696;2024-03-07T00:47:16;4.00;77.40
73777;DHT22;62088;50.240;2.696;2024-03-07T00:49:45;4.00;77.50
73777;DHT22;62088;50.240;2.696;2024-03-07T00:52:13;4.00;77.60
73777;DHT22;62088;50.240;2.696;2024-03-07T00:54:41;4.00;77.60
73777;DHT22;62088;50.240;2.696;2024-03-07T00:57:08;3.90;77.60
73777;DHT22;62088;50.240;2.696;2024-03-07T00:59:35;3.90;77.60
73777;DHT22;62088;50.240;2.696;2024-03-07T01:02:02;3.90;77.60
73777;DHT22;62088;50.240;2.696;2024-03-07T01:04:30;3.90;77.70
73777;DHT22;62088;50.240;2.696;2024-03-07T01:06:58;3.90;77.70
73777;DHT22;62088;50.240;2.696;2024-03-07T01:09:26;3.90;77.70
73777;DHT22;62088;50.240;2.696;2024-03-07T01:11:55;3.90;77.80
73777;DHT22;62088;50.240;2.696;2024-03-07T01:14:22;3.90;77.80
73777;DHT22;62088;50.240;2.696;2024-03-07T01:16:50;3.90;77.90
73777;DHT22;62088;50.240;2.696;2024-03-07T01:19:17;3.90;77.90
73777;DHT22;62088;50.240;2.696;2024-03-07T01:21:44;3.90;77.90
73777;DHT22;62088;50.240;2.696;2024-03-07T01:24:12;3.90;77.90
73777;DHT22;62088;50.240;2.696;2024-03-07T01:26:39;3.90;77.90
73777;DHT22;62088;50.240;2.696;2024-03-07T01:29:06;3.80;77.90
73777;DHT22;62088;50.240;2.696;2024-03-07T01:31:34;3.80;78.00
73777;DHT22;62088;50.240;2.696;2024-03-07T01:34:01;3.80;78.10
73777;DHT22;62088;50.240;2.696;2024-03-07T01:36:28;3.90;78.10
73777;DHT22;62088;50.240;2.696;2024-03-07T01:38:56;3.80;78.10
73777;DHT22;62088;50.240;2.696;2024-03-07T01:41:23;3.80;78.20
73777;DHT22;62088;50.240;2.696;2024-03-07T01:43:50;3.80;78.10
73777;DHT22;62088;50.240;2.696;2024-03-07T01:46:17;3.80;78.10
73777;DHT22;62088;50.240;2.696;2024-03-07T01:48:46;3.80;78.10
73777;DHT22;62088;50.240;2.696;2024-03-07T01:51:15;3.70;78.00
73777;DHT22;62088;50.240;2.696;2024-03-07T01:53:42;3.70;78.00
73777;DHT22;62088;50.240;2.696;2024-03-07T01:56:10;3.70;78.00
73777;DHT22;62088;50.240;2.696;2024-03-07T01:58:37;3.70;78.10
73777;DHT22;62088;50.240;2.696;2024-03-07T02:01:05;3.70;78.10
73777;DHT22;62088;50.240;2.696;2024-03-07T02:03:32;3.70;78.10
73777;DHT22;62088;50.240;2.696;2024-03-07T02:06:00;3.70;78.20
73777;DHT22;62088;50.240;2.696;2024-03-07T02:08:28;3.70;78.20
73777;DHT22;62088;50.240;2.696;2024-03-07T02:10:55;3.70;78.20
73777;DHT22;62088;50.240;2.696;2024-03-07T02:13:22;3.70;78.20
73777;DHT22;62088;50.240;2.696;2024-03-07T02:15:49;3.70;78.20
73777;DHT22;62088;50.240;2.696;2024-03-07T02:18:16;3.70;78.20
73777;DHT22;62088;50.240;2.696;2024-03-07T02:20:44;3.70;78.20
73777;DHT22;62088;50.240;2.696;2024-03-07T02:23:13;3.60;78.20
73777;DHT22;62088;50.240;2.696;2024-03-07T02:25:40;3.60;78.20
73777;DHT22;62088;50.240;2.696;2024-03-07T02:28:07;3.70;78.20
73777;DHT22;62088;50.240;2.696;2024-03-07T02:30:34;3.60;78.20
73777;DHT22;62088;50.240;2.696;2024-03-07T02:33:01;3.60;78.10
73777;DHT22;62088;50.240;2.696;2024-03-07T02:35:34;3.50;78.20
73777;DHT22;62088;50.240;2.696;2024-03-07T02:38:04;3.50;78.20
73777;DHT22;62088;50.240;2.696;2024-03-07T02:40:35;3.50;78.20
73777;DHT22;62088;50.240;2.696;2024-03-07T02:43:02;3.50;78.20
73777;DHT22;62088;50.240;2.696;2024-03-07T02:45:34;3.50;78.20
73777;DHT22;62088;50.240;2.696;2024-03-07T02:48:01;3.50;78.20
73777;DHT22;62088;50.240;2.696;2024-03-07T02:50:28;3.50;78.20
73777;DHT22;62088;50.240;2.696;2024-03-07T02:52:55;3.50;78.20
73777;DHT22;62088;50.240;2.696;2024-03-07T02:55:22;3.50;78.20
73777;DHT22;62088;50.240;2.696;2024-03-07T02:57:49;3.40;78.20
73777;DHT22;62088;50.240;2.696;2024-03-07T03:00:17;3.40;78.20
73777;DHT22;62088;50.240;2.696;2024-03-07T03:02:50;3.40;78.20
73777;DHT22;62088;50.240;2.696;2024-03-07T03:05:17;3.40;78.10
73777;DHT22;62088;50.240;2.696;2024-03-07T03:07:46;3.40;78.20
73777;DHT22;62088;50.240;2.696;2024-03-07T03:10:24;3.40;78.30
73777;DHT22;62088;50.240;2.696;2024-03-07T03:12:54;3.30;78.30
73777;DHT22;62088;50.240;2.696;2024-03-07T03:15:22;3.30;78.30
73777;DHT22;62088;50.240;2.696;2024-03-07T03:17:50;3.30;78.30
73777;DHT22;62088;50.240;2.696;2024-03-07T03:20:19;3.30;78.40
73777;DHT22;62088;50.240;2.696;2024-03-07T03:22:53;3.30;78.40
73777;DHT22;62088;50.240;2.696;2024-03-07T03:25:40;3.30;78.40
73777;DHT22;62088;50.240;2.696;2024-03-07T03:28:08;3.20;78.40
73777;DHT22;62088;50.240;2.696;2024-03-07T03:30:40;3.20;78.40
73777;DHT22;62088;50.240;2.696;2024-03-07T03:33:08;3.20;78.40
73777;DHT22;62088;50.240;2.696;2024-03-07T03:35:39;3.20;78.40
73777;DHT22;62088;50.240;2.696;2024-03-07T03:38:07;3.20;78.40
73777;DHT22;62088;50.240;2.696;2024-03-07T03:40:35;3.10;78.50
73777;DHT22;62088;50.240;2.696;2024-03-07T03:43:02;3.20;78.50
73777;DHT22;62088;50.240;2.696;2024-03-07T03:45:30;3.10;78.50
73777;DHT22;62088;50.240;2.696;2024-03-07T03:48:01;3.10;78.50
73777;DHT22;62088;50.240;2.696;2024-03-07T03:50:28;3.10;78.60
73777;DHT22;62088;50.240;2.696;2024-03-07T03:52:55;3.10;78.60
73777;DHT22;62088;50.240;2.696;2024-03-07T03:55:24;3.10;78.70
73777;DHT22;62088;50.240;2.696;2024-03-07T03:57:51;3.10;78.70
73777;DHT22;62088;50.240;2.696;2024-03-07T04:00:20;3.10;78.70
73777;DHT22;62088;50.240;2.696;2024-03-07T04:02:50;3.10;78.70
73777;DHT22;62088;50.240;2.696;2024-03-07T04:05:19;3.00;78.70
73777;DHT22;62088;50.240;2.696;2024-03-07T04:07:48;3.10;78.80
73777;DHT22;62088;50.240;2.696;2024-03-07T04:10:16;3.10;78.80
73777;DHT22;62088;50.240;2.696;2024-03-07T04:12:44;3.00;78.80
73777;DHT22;62088;50.240;2.696;2024-03-07T04:15:14;3.00;78.90
73777;DHT22;62088;50.240;2.696;2024-03-07T04:17:45;3.00;79.00
73777;DHT22;62088;50.240;2.696;2024-03-07T04:20:14;3.00;79.10
73777;DHT22;62088;50.240;2.696;2024-03-07T04:22:45;3.10;79.10
73777;DHT22;62088;50.240;2.696;2024-03-07T04:25:12;3.10;79.10
73777;DHT22;62088;50.240;2.696;2024-03-07T04:27:39;3.00;79.10
73777;DHT22;62088;50.240;2.696;2024-03-07T04:30:07;3.00;79.10
73777;DHT22;62088;50.240;2.696;2024-03-07T04:32:39;3.00;79.10
73777;DHT22;62088;50.240;2.696;2024-03-07T04:35:09;3.10;79.10
73777;DHT22;62088;50.240;2.696;2024-03-07T04:37:41;3.00;79.10
73777;DHT22;62088;50.240;2.696;2024-03-07T04:40:09;3.00;79.10
73777;DHT22;62088;50.240;2.696;2024-03-07T04:42:48;3.00;79.20
73777;DHT22;62088;50.240;2.696;2024-03-07T04:45:17;3.00;79.20
73777;DHT22;62088;50.240;2.696;2024-03-07T04:47:45;3.00;79.20
73777;DHT22;62088;50.240;2.696;2024-03-07T04:50:14;3.00;79.20
73777;DHT22;62088;50.240;2.696;2024-03-07T04:52:46;3.00;79.30
73777;DHT22;62088;50.240;2.696;2024-03-07T04:55:15;3.00;79.40
73777;DHT22;62088;50.240;2.696;2024-03-07T04:57:42;3.00;79.40
73777;DHT22;62088;50.240;2.696;2024-03-07T05:00:13;3.00;79.50
73777;DHT22;62088;50.240;2.696;2024-03-07T05:02:44;3.10;79.60
73777;DHT22;62088;50.240;2.696;2024-03-07T05:05:11;3.10;79.60
73777;DHT22;62088;50.240;2.696;2024-03-07T05:07:40;3.10;79.70
73777;DHT22;62088;50.240;2.696;2024-03-07T05:10:08;3.10;79.70
73777;DHT22;62088;50.240;2.696;2024-03-07T05:12:35;3.10;79.80
73777;DHT22;62088;50.240;2.696;2024-03-07T05:15:05;3.20;79.90
73777;DHT22;62088;50.240;2.696;2024-03-07T05:17:32;3.10;79.90
73777;DHT22;62088;50.240;2.696;2024-03-07T05:20:02;3.10;79.90
73777;DHT22;62088;50.240;2.696;2024-03-07T05:22:30;3.20;80.00
73777;DHT22;62088;50.240;2.696;2024-03-07T05:24:58;3.20;80.10
73777;DHT22;62088;50.240;2.696;2024-03-07T05:27:26;3.20;80.10
73777;DHT22;62088;50.240;2.696;2024-03-07T05:29:55;3.20;80.20
73777;DHT22;62088;50.240;2.696;2024-03-07T05:32:26;3.20;80.20
73777;DHT22;62088;50.240;2.696;2024-03-07T05:34:54;3.20;80.30
73777;DHT22;62088;50.240;2.696;2024-03-07T05:37:22;3.20;80.30
73777;DHT22;62088;50.240;2.696;2024-03-07T05:39:51;3.20;80.30
73777;DHT22;62088;50.240;2.696;2024-03-07T05:42:19;3.20;80.30
73777;DHT22;62088;50.240;2.696;2024-03-07T05:44:46;3.20;80.30
73777;DHT22;62088;50.240;2.696;2024-03-07T05:47:14;3.20;80.40
73777;DHT22;62088;50.240;2.696;2024-03-07T05:49:41;3.20;80.40
73777;DHT22;62088;50.240;2.696;2024-03-07T05:52:09;3.20;80.50
73777;DHT22;62088;50.240;2.696;2024-03-07T05:54:36;3.20;80.50
73777;DHT22;62088;50.240;2.696;2024-03-07T05:57:03;3.30;80.50
73777;DHT22;62088;50.240;2.696;2024-03-07T05:59:32;3.30;80.50
73777;DHT22;62088;50.240;2.696;2024-03-07T06:02:00;3.20;80.50
73777;DHT22;62088;50.240;2.696;2024-03-07T06:04:27;3.20;80.50
73777;DHT22;62088;50.240;2.696;2024-03-07T06:06:56;3.20;80.50
73777;DHT22;62088;50.240;2.696;2024-03-07T06:09:23;3.20;80.50
73777;DHT22;62088;50.240;2.696;2024-03-07T06:11:50;3.20;80.50
73777;DHT22;62088;50.240;2.696;2024-03-07T06:14:18;3.20;80.50
73777;DHT22;62088;50.240;2.696;2024-03-07T06:16:46;3.20;80.40
73777;DHT22;62088;50.240;2.696;2024-03-07T06:19:14;3.20;80.40
73777;DHT22;62088;50.240;2.696;2024-03-07T06:21:41;3.20;80.40
73777;DHT22;62088;50.240;2.696;2024-03-07T06:24:09;3.20;80.40
73777;DHT22;62088;50.240;2.696;2024-03-07T06:26:39;3.20;80.40
73777;DHT22;62088;50.240;2.696;2024-03-07T06:29:14;3.20;80.40
73777;DHT22;62088;50.240;2.696;2024-03-07T06:31:46;3.20;80.40
73777;DHT22;62088;50.240;2.696;2024-03-07T06:34:14;3.20;80.40
73777;DHT22;62088;50.240;2.696;2024-03-07T06:36:41;3.20;80.40
73777;DHT22;62088;50.240;2.696;2024-03-07T06:39:08;3.20;80.50
73777;DHT22;62088;50.240;2.696;2024-03-07T06:41:38;3.20;80.50
73777;DHT22;62088;50.240;2.696;2024-03-07T06:44:05;3.20;80.60
73777;DHT22;62088;50.240;2.696;2024-03-07T06:46:34;3.20;80.60
73777;DHT22;62088;50.240;2.696;2024-03-07T06:49:01;3.20;80.70
73777;DHT22;62088;50.240;2.696;2024-03-07T06:51:29;3.20;80.70
73777;DHT22;62088;50.240;2.696;2024-03-07T06:53:56;3.20;80.70
73777;DHT22;62088;50.240;2.696;2024-03-07T06:56:24;3.20;80.80
73777;DHT22;62088;50.240;2.696;2024-03-07T06:58:51;3.20;80.80
73777;DHT22;62088;50.240;2.696;2024-03-07T07:01:19;3.20;80.90
73777;DHT22;62088;50.240;2.696;2024-03-07T07:03:48;3.20;80.90
73777;DHT22;62088;50.240;2.696;2024-03-07T07:06:16;3.20;81.00
73777;DHT22;62088;50.240;2.696;2024-03-07T07:08:44;3.30;81.00
73777;DHT22;62088;50.240;2.696;2024-03-07T07:11:12;3.30;81.10
73777;DHT22;62088;50.240;2.696;2024-03-07T07:13:40;3.30;81.20
73777;DHT22;62088;50.240;2.696;2024-03-07T07:16:09;3.30;81.30
73777;DHT22;62088;50.240;2.696;2024-03-07T07:18:37;3.30;81.30
73777;DHT22;62088;50.240;2.696;2024-03-07T07:21:05;3.30;81.40
73777;DHT22;62088;50.240;2.696;2024-03-07T07:23:38;3.40;81.50
73777;DHT22;62088;50.240;2.696;2024-03-07T07:26:05;3.40;81.60
73777;DHT22;62088;50.240;2.696;2024-03-07T07:28:32;3.40;81.70
73777;DHT22;62088;50.240;2.696;2024-03-07T07:31:00;3.40;81.80
73777;DHT22;62088;50.240;2.696;2024-03-07T07:33:27;3.40;81.90
73777;DHT22;62088;50.240;2.696;2024-03-07T07:35:54;3.50;82.00
73777;DHT22;62088;50.240;2.696;2024-03-07T07:38:21;3.50;82.20
73777;DHT22;62088;50.240;2.696;2024-03-07T07:40:49;3.50;82.30
73777;DHT22;62088;50.240;2.696;2024-03-07T07:43:17;3.50;82.40
73777;DHT22;62088;50.240;2.696;2024-03-07T07:45:59;3.60;82.50
73777;DHT22;62088;50.240;2.696;2024-03-07T07:48:28;3.60;82.70
73777;DHT22;62088;50.240;2.696;2024-03-07T07:50:57;3.60;82.80
73777;DHT22;62088;50.240;2.696;2024-03-07T07:53:24;3.70;82.90
73777;DHT22;62088;50.240;2.696;2024-03-07T07:55:51;3.70;83.00
73777;DHT22;62088;50.240;2.696;2024-03-07T07:58:18;3.80;83.10
73777;DHT22;62088;50.240;2.696;2024-03-07T08:00:45;3.90;83.20
73777;DHT22;62088;50.240;2.696;2024-03-07T08:03:13;3.90;83.30
73777;DHT22;62088;50.240;2.696;2024-03-07T08:05:42;3.90;83.40
73777;DHT22;62088;50.240;2.696;2024-03-07T08:08:10;4.00;83.50
73777;DHT22;62088;50.240;2.696;2024-03-07T08:10:40;4.00;83.60
73777;DHT22;62088;50.240;2.696;2024-03-07T08:13:13;4.00;83.70
73777;DHT22;62088;50.240;2.696;2024-03-07T08:15:41;4.10;83.80
73777;DHT22;62088;50.240;2.696;2024-03-07T08:18:09;4.20;83.90
73777;DHT22;62088;50.240;2.696;2024-03-07T08:20:38;4.20;83.90
73777;DHT22;62088;50.240;2.696;2024-03-07T08:23:07;4.20;84.00
73777;DHT22;62088;50.240;2.696;2024-03-07T08:25:34;4.40;84.10
73777;DHT22;62088;50.240;2.696;2024-03-07T08:28:01;4.40;84.20
73777;DHT22;62088;50.240;2.696;2024-03-07T08:30:28;4.40;84.20
73777;DHT22;62088;50.240;2.696;2024-03-07T08:32:57;4.50;84.30
73777;DHT22;62088;50.240;2.696;2024-03-07T08:35:26;4.50;84.30
73777;DHT22;62088;50.240;2.696;2024-03-07T08:37:54;4.60;84.40
73777;DHT22;62088;50.240;2.696;2024-03-07T08:40:25;4.70;84.50
73777;DHT22;62088;50.240;2.696;2024-03-07T08:42:55;4.70;84.50
73777;DHT22;62088;50.240;2.696;2024-03-07T08:45:25;4.80;84.60
73777;DHT22;62088;50.240;2.696;2024-03-07T08:47:54;4.90;84.60
73777;DHT22;62088;50.240;2.696;2024-03-07T08:50:23;4.90;84.70
73777;DHT22;62088;50.240;2.696;2024-03-07T08:52:50;5.00;84.80
73777;DHT22;62088;50.240;2.696;2024-03-07T08:55:23;5.10;84.80
73777;DHT22;62088;50.240;2.696;2024-03-07T08:57:52;5.20;84.80
73777;DHT22;62088;50.240;2.696;2024-03-07T09:00:19;5.20;84.80
73777;DHT22;62088;50.240;2.696;2024-03-07T09:02:57;5.30;84.80
73777;DHT22;62088;50.240;2.696;2024-03-07T09:05:30;5.40;84.80
73777;DHT22;62088;50.240;2.696;2024-03-07T09:08:01;5.40;84.90
73777;DHT22;62088;50.240;2.696;2024-03-07T09:10:30;5.50;84.90
73777;DHT22;62088;50.240;2.696;2024-03-07T09:12:58;5.60;84.90
73777;DHT22;62088;50.240;2.696;2024-03-07T09:15:25;5.60;84.90
73777;DHT22;62088;50.240;2.696;2024-03-07T09:17:54;5.70;84.90
73777;DHT22;62088;50.240;2.696;2024-03-07T09:20:21;5.70;84.90
73777;DHT22;62088;50.240;2.696;2024-03-07T09:22:51;5.80;84.90
73777;DHT22;62088;50.240;2.696;2024-03-07T09:25:21;5.80;84.90
73777;DHT22;62088;50.240;2.696;2024-03-07T09:27:49;5.90;84.90
73777;DHT22;62088;50.240;2.696;2024-03-07T09:30:16;6.00;84.90
73777;DHT22;62088;50.240;2.696;2024-03-07T09:32:46;6.00;84.90
73777;DHT22;62088;50.240;2.696;2024-03-07T09:35:13;6.00;84.80
73777;DHT22;62088;50.240;2.696;2024-03-07T09:37:42;6.20;84.80
73777;DHT22;62088;50.240;2.696;2024-03-07T09:40:11;6.20;84.70
73777;DHT22;62088;50.240;2.696;2024-03-07T09:42:46;6.30;84.70
73777;DHT22;62088;50.240;2.696;2024-03-07T09:45:20;6.30;84.70
73777;DHT22;62088;50.240;2.696;2024-03-07T09:47:50;6.40;84.60
73777;DHT22;62088;50.240;2.696;2024-03-07T09:50:21;6.40;84.60
73777;DHT22;62088;50.240;2.696;2024-03-07T09:52:52;6.50;84.50
73777;DHT22;62088;50.240;2.696;2024-03-07T09:55:20;6.60;84.50
73777;DHT22;62088;50.240;2.696;2024-03-07T09:57:49;6.70;84.50
73777;DHT22;62088;50.240;2.696;2024-03-07T10:00:18;6.80;84.60
73777;DHT22;62088;50.240;2.696;2024-03-07T10:03:02;6.90;84.50
73777;DHT22;62088;50.240;2.696;2024-03-07T10:05:32;7.00;84.40
73777;DHT22;62088;50.240;2.696;2024-03-07T10:08:00;7.20;84.40
73777;DHT22;62088;50.240;2.696;2024-03-07T10:10:28;7.30;84.30
73777;DHT22;62088;50.240;2.696;2024-03-07T10:12:58;7.40;84.20
73777;DHT22;62088;50.240;2.696;2024-03-07T10:15:32;7.50;84.00
73777;DHT22;62088;50.240;2.696;2024-03-07T10:18:00;7.60;83.90
73777;DHT22;62088;50.240;2.696;2024-03-07T10:20:28;7.70;83.70
73777;DHT22;62088;50.240;2.696;2024-03-07T10:22:56;7.90;83.60
73777;DHT22;62088;50.240;2.696;2024-03-07T10:25:24;7.90;83.40
73777;DHT22;62088;50.240;2.696;2024-03-07T10:27:54;8.00;83.20
73777;DHT22;62088;50.240;2.696;2024-03-07T10:30:22;8.10;83.10
73777;DHT22;62088;50.240;2.696;2024-03-07T10:32:57;8.20;83.00
73777;DHT22;62088;50.240;2.696;2024-03-07T10:35:27;8.40;82.80
73777;DHT22;62088;50.240;2.696;2024-03-07T10:37:57;8.50;82.70
73777;DHT22;62088;50.240;2.696;2024-03-07T10:40:33;8.60;82.40
73777;DHT22;62088;50.240;2.696;2024-03-07T10:43:10;8.70;82.00
73777;DHT22;62088;50.240;2.696;2024-03-07T10:45:46;8.80;81.70
73777;DHT22;62088;50.240;2.696;2024-03-07T10:48:20;8.90;81.40
73777;DHT22;62088;50.240;2.696;2024-03-07T10:51:00;9.10;81.30
73777;DHT22;62088;50.240;2.696;2024-03-07T10:53:50;9.20;81.10
73777;DHT22;62088;50.240;2.696;2024-03-07T11:01:31;9.60;80.30
73777;DHT22;62088;50.240;2.696;2024-03-07T11:04:01;9.70;80.00
73777;DHT22;62088;50.240;2.696;2024-03-07T11:06:33;9.80;79.60
73777;DHT22;62088;50.240;2.696;2024-03-07T11:09:03;9.90;79.40
73777;DHT22;62088;50.240;2.696;2024-03-07T11:11:40;10.00;79.20
73777;DHT22;62088;50.240;2.696;2024-03-07T11:14:10;10.20;78.80
73777;DHT22;62088;50.240;2.696;2024-03-07T11:16:39;10.30;78.40
73777;DHT22;62088;50.240;2.696;2024-03-07T11:19:27;10.40;77.80
73777;DHT22;62088;50.240;2.696;2024-03-07T11:21:55;10.40;77.30
73777;DHT22;62088;50.240;2.696;2024-03-07T11:24:27;10.50;76.90
73777;DHT22;62088;50.240;2.696;2024-03-07T11:27:04;10.50;76.40
73777;DHT22;62088;50.240;2.696;2024-03-07T11:29:50;10.60;76.10
73777;DHT22;62088;50.240;2.696;2024-03-07T11:32:21;10.70;75.70
73777;DHT22;62088;50.240;2.696;2024-03-07T11:34:53;10.80;75.00
73777;DHT22;62088;50.240;2.696;2024-03-07T11:37:44;10.90;74.70
73777;DHT22;62088;50.240;2.696;2024-03-07T11:43:01;11.10;74.10
73777;DHT22;62088;50.240;2.696;2024-03-07T11:45:32;11.20;73.80
73777;DHT22;62088;50.240;2.696;2024-03-07T11:48:19;11.30;73.60
73777;DHT22;62088;50.240;2.696;2024-03-07T11:50:48;11.30;73.40
73777;DHT22;62088;50.240;2.696;2024-03-07T11:53:16;11.40;73.20
73777;DHT22;62088;50.240;2.696;2024-03-07T11:55:44;11.40;72.80
73777;DHT22;62088;50.240;2.696;2024-03-07T11:58:18;11.40;72.60
73777;DHT22;62088;50.240;2.696;2024-03-07T12:00:51;11.50;72.30
73777;DHT22;62088;50.240;2.696;2024-03-07T12:03:19;11.50;72.10
73777;DHT22;62088;50.240;2.696;2024-03-07T12:05:52;11.50;71.80
73777;DHT22;62088;50.240;2.696;2024-03-07T12:08:20;11.60;71.30
73777;DHT22;62088;50.240;2.696;2024-03-07T12:10:52;11.70;71.20
73777;DHT22;62088;50.240;2.696;2024-03-07T12:13:25;11.80;70.90
73777;DHT22;62088;50.240;2.696;2024-03-07T12:15:54;11.90;70.70
73777;DHT22;62088;50.240;2.696;2024-03-07T12:18:23;11.90;70.40
73777;DHT22;62088;50.240;2.696;2024-03-07T12:20:51;12.00;70.10
73777;DHT22;62088;50.240;2.696;2024-03-07T12:23:23;12.00;69.80
73777;DHT22;62088;50.240;2.696;2024-03-07T12:26:03;12.10;69.50
73777;DHT22;62088;50.240;2.696;2024-03-07T12:28:30;12.20;68.60
73777;DHT22;62088;50.240;2.696;2024-03-07T12:31:03;12.20;68.10
73777;DHT22;62088;50.240;2.696;2024-03-07T12:33:31;12.30;67.80
73777;DHT22;62088;50.240;2.696;2024-03-07T12:36:06;12.30;67.50
73777;DHT22;62088;50.240;2.696;2024-03-07T12:38:36;12.40;67.00
73777;DHT22;62088;50.240;2.696;2024-03-07T12:41:05;12.40;66.70
73777;DHT22;62088;50.240;2.696;2024-03-07T12:43:34;12.40;66.20
73777;DHT22;62088;50.240;2.696;2024-03-07T12:46:01;12.40;65.90
73777;DHT22;62088;50.240;2.696;2024-03-07T12:48:31;12.50;65.50
73777;DHT22;62088;50.240;2.696;2024-03-07T12:50:59;12.50;64.80
73777;DHT22;62088;50.240;2.696;2024-03-07T12:53:29;12.50;64.50
73777;DHT22;62088;50.240;2.696;2024-03-07T12:55:57;12.50;64.60
73777;DHT22;62088;50.240;2.696;2024-03-07T12:58:24;12.50;64.80
73777;DHT22;62088;50.240;2.696;2024-03-07T13:00:54;12.60;65.00
73777;DHT22;62088;50.240;2.696;2024-03-07T13:03:25;12.60;65.20
73777;DHT22;62088;50.240;2.696;2024-03-07T13:05:58;12.60;65.70
73777;DHT22;62088;50.240;2.696;2024-03-07T13:08:29;12.70;66.00
73777;DHT22;62088;50.240;2.696;2024-03-07T13:10:57;12.70;66.00
73777;DHT22;62088;50.240;2.696;2024-03-07T13:13:27;12.60;65.90
73777;DHT22;62088;50.240;2.696;2024-03-07T13:15:54;12.60;65.80
73777;DHT22;62088;50.240;2.696;2024-03-07T13:18:22;12.50;65.80
73777;DHT22;62088;50.240;2.696;2024-03-07T13:20:50;12.50;65.80
73777;DHT22;62088;50.240;2.696;2024-03-07T13:23:17;12.50;65.80
73777;DHT22;62088;50.240;2.696;2024-03-07T13:25:45;12.50;65.90
73777;DHT22;62088;50.240;2.696;2024-03-07T13:28:13;12.50;65.80
73777;DHT22;62088;50.240;2.696;2024-03-07T13:30:44;12.50;65.60
73777;DHT22;62088;50.240;2.696;2024-03-07T13:33:16;12.50;65.50
73777;DHT22;62088;50.240;2.696;2024-03-07T13:35:44;12.50;65.40
73777;DHT22;62088;50.240;2.696;2024-03-07T13:38:11;12.50;65.20
73777;DHT22;62088;50.240;2.696;2024-03-07T13:40:40;12.50;65.10
73777;DHT22;62088;50.240;2.696;2024-03-07T13:43:07;12.60;64.90
73777;DHT22;62088;50.240;2.696;2024-03-07T13:45:36;12.60;64.80
73777;DHT22;62088;50.240;2.696;2024-03-07T13:48:08;12.60;64.60
73777;DHT22;62088;50.240;2.696;2024-03-07T13:50:38;12.60;64.50
73777;DHT22;62088;50.240;2.696;2024-03-07T13:53:24;12.60;64.30
73777;DHT22;62088;50.240;2.696;2024-03-07T14:23:41;12.40;64.00
73777;DHT22;62088;50.240;2.696;2024-03-07T14:31:42;12.40;63.90
73777;DHT22;62088;50.240;2.696;2024-03-07T14:37:36;12.40;63.80
73777;DHT22;62088;50.240;2.696;2024-03-07T14:40:10;12.40;63.70
73777;DHT22;62088;50.240;2.696;2024-03-07T14:42:44;12.40;63.80
73777;DHT22;62088;50.240;2.696;2024-03-07T14:45:12;12.40;63.90
73777;DHT22;62088;50.240;2.696;2024-03-07T14:47:41;12.40;64.00
73777;DHT22;62088;50.240;2.696;2024-03-07T14:50:09;12.40;64.00
73777;DHT22;62088;50.240;2.696;2024-03-07T14:52:37;12.40;64.00
73777;DHT22;62088;50.240;2.696;2024-03-07T14:55:08;12.40;64.00
73777;DHT22;62088;50.240;2.696;2024-03-07T14:57:35;12.30;64.20
73777;DHT22;62088;50.240;2.696;2024-03-07T15:00:03;12.30;64.30
73777;DHT22;62088;50.240;2.696;2024-03-07T15:02:51;12.20;64.50
73777;DHT22;62088;50.240;2.696;2024-03-07T15:05:18;12.20;64.90
73777;DHT22;62088;50.240;2.696;2024-03-07T15:07:46;12.20;65.00
73777;DHT22;62088;50.240;2.696;2024-03-07T15:10:25;12.10;65.20
73777;DHT22;62088;50.240;2.696;2024-03-07T15:12:53;12.10;65.40
73777;DHT22;62088;50.240;2.696;2024-03-07T15:15:21;12.10;65.50
73777;DHT22;62088;50.240;2.696;2024-03-07T15:17:51;12.10;65.60
73777;DHT22;62088;50.240;2.696;2024-03-07T15:20:18;12.10;65.80
73777;DHT22;62088;50.240;2.696;2024-03-07T15:22:53;12.10;65.90
73777;DHT22;62088;50.240;2.696;2024-03-07T15:25:21;12.10;65.80
73777;DHT22;62088;50.240;2.696;2024-03-07T15:27:51;12.10;65.80
73777;DHT22;62088;50.240;2.696;2024-03-07T15:30:19;12.10;65.70
73777;DHT22;62088;50.240;2.696;2024-03-07T15:32:47;12.10;65.70
73777;DHT22;62088;50.240;2.696;2024-03-07T15:35:14;12.10;65.60
73777;DHT22;62088;50.240;2.696;2024-03-07T15:37:48;12.00;65.60
73777;DHT22;62088;50.240;2.696;2024-03-07T15:40:16;12.00;65.60
73777;DHT22;62088;50.240;2.696;2024-03-07T15:42:45;12.00;65.80
73777;DHT22;62088;50.240;2.696;2024-03-07T15:45:17;11.90;66.00
73777;DHT22;62088;50.240;2.696;2024-03-07T15:47:52;11.90;66.10
73777;DHT22;62088;50.240;2.696;2024-03-07T15:50:21;11.90;66.10
73777;DHT22;62088;50.240;2.696;2024-03-07T15:52:50;11.90;66.20
73777;DHT22;62088;50.240;2.696;2024-03-07T15:55:21;11.80;66.30
73777;DHT22;62088;50.240;2.696;2024-03-07T15:57:53;11.80;66.40
73777;DHT22;62088;50.240;2.696;2024-03-07T16:00:22;11.70;66.40
73777;DHT22;62088;50.240;2.696;2024-03-07T16:05:27;11.70;66.60
73777;DHT22;62088;50.240;2.696;2024-03-07T16:08:02;11.60;66.70
73777;DHT22;62088;50.240;2.696;2024-03-07T16:10:35;11.50;66.80
73777;DHT22;62088;50.240;2.696;2024-03-07T16:13:04;11.50;66.80
73777;DHT22;62088;50.240;2.696;2024-03-07T16:15:37;11.40;66.60
73777;DHT22;62088;50.240;2.696;2024-03-07T16:18:09;11.50;66.50
73777;DHT22;62088;50.240;2.696;2024-03-07T16:20:38;11.40;66.30
73777;DHT22;62088;50.240;2.696;2024-03-07T16:23:06;11.40;66.20
73777;DHT22;62088;50.240;2.696;2024-03-07T16:25:35;11.40;66.20
73777;DHT22;62088;50.240;2.696;2024-03-07T16:28:06;11.30;66.30
73777;DHT22;62088;50.240;2.696;2024-03-07T16:30:34;11.30;66.30
73777;DHT22;62088;50.240;2.696;2024-03-07T16:33:02;11.20;66.30
73777;DHT22;62088;50.240;2.696;2024-03-07T16:35:31;11.20;66.30
73777;DHT22;62088;50.240;2.696;2024-03-07T16:37:59;11.20;66.40
73777;DHT22;62088;50.240;2.696;2024-03-07T16:40:27;11.20;66.40
73777;DHT22;62088;50.240;2.696;2024-03-07T16:42:59;11.20;66.40